createdAt,value
2018-08-30T00:01:36.073Z,11.33
2018-08-30T00:04:05.281Z,11.50
2018-08-30T00:06:34.437Z,12.00
2018-08-30T00:09:04.892Z,11.20
2018-08-30T00:11:34.053Z,12.27
2018-08-30T00:14:03.494Z,12.10
2018-08-30T00:16:32.672Z,11.07
2018-08-30T00:19:01.877Z,10.90
2018-08-30T00:21:31.054Z,11.90
2018-08-30T00:24:00.226Z,11.43
2018-08-30T00:26:29.400Z,10.97
2018-08-30T00:28:58.513Z,10.73
2018-08-30T00:31:27.739Z,10.00
2018-08-30T00:33:56.894Z,11.30
2018-08-30T00:36:26.045Z,11.67
2018-08-30T00:38:55.255Z,12.30
2018-08-30T00:41:24.481Z,11.67
2018-08-30T00:43:53.596Z,11.67
2018-08-30T00:46:22.771Z,12.97
2018-08-30T00:48:52.012Z,11.60
2018-08-30T00:51:21.192Z,12.13
2018-08-30T00:53:50.408Z,12.73
2018-08-30T00:56:19.656Z,12.87
2018-08-30T00:58:48.878Z,13.80
2018-08-30T01:01:18.038Z,13.33
2018-08-30T01:03:47.165Z,12.70
2018-08-30T01:06:16.294Z,13.50
2018-08-30T01:08:45.453Z,13.83
2018-08-30T01:11:14.636Z,15.33
2018-08-30T01:13:43.777Z,16.37
2018-08-30T01:16:12.911Z,16.90
2018-08-30T01:18:42.156Z,16.33
2018-08-30T01:21:11.326Z,16.30
2018-08-30T01:23:40.463Z,16.87
2018-08-30T01:26:09.694Z,15.50
2018-08-30T01:28:38.840Z,15.20
2018-08-30T01:31:07.986Z,13.40
2018-08-30T01:33:37.131Z,14.80
2018-08-30T01:36:06.344Z,14.67
2018-08-30T01:38:35.496Z,13.30
2018-08-30T01:41:04.625Z,14.07
2018-08-30T01:43:33.766Z,14.40
2018-08-30T01:46:02.929Z,14.87
2018-08-30T01:48:32.046Z,13.50
2018-08-30T01:51:01.231Z,13.90
2018-08-30T01:53:30.441Z,14.40
2018-08-30T01:55:59.572Z,12.93
2018-08-30T01:58:28.727Z,13.40
2018-08-30T02:00:57.905Z,14.60
2018-08-30T02:03:27.175Z,14.00
2018-08-30T02:05:56.316Z,14.13
2018-08-30T02:08:25.413Z,13.07
2018-08-30T02:10:54.583Z,12.77
2018-08-30T02:13:23.766Z,14.60
2018-08-30T02:15:52.951Z,14.20
2018-08-30T02:18:22.103Z,14.40
2018-08-30T02:20:51.284Z,14.03
2018-08-30T02:23:20.468Z,14.30
2018-08-30T02:25:49.606Z,15.00
2018-08-30T02:28:18.793Z,14.10
2018-08-30T02:30:47.994Z,15.20
2018-08-30T02:33:18.132Z,14.70
2018-08-30T02:35:47.335Z,15.50
2018-08-30T02:38:16.540Z,16.90
2018-08-30T02:40:45.742Z,16.03
2018-08-30T02:43:14.890Z,15.20
2018-08-30T02:45:44.039Z,15.67
2018-08-30T02:48:13.209Z,15.60
2018-08-30T02:50:42.389Z,15.67
2018-08-30T02:53:11.794Z,14.97
2018-08-30T02:55:40.975Z,16.37
2018-08-30T02:58:10.107Z,15.00
2018-08-30T03:00:39.365Z,14.57
2018-08-30T03:03:08.508Z,17.40
2018-08-30T03:05:37.822Z,17.23
2018-08-30T03:08:07.208Z,18.37
2018-08-30T03:10:36.439Z,18.43
2018-08-30T03:13:05.649Z,17.90
2018-08-30T03:15:34.806Z,20.17
2018-08-30T03:18:04.025Z,21.40
2018-08-30T03:20:33.202Z,23.33
2018-08-30T03:23:02.428Z,22.00
2018-08-30T03:25:31.593Z,23.40
2018-08-30T03:28:00.789Z,23.73
2018-08-30T03:30:29.985Z,25.10
2018-08-30T03:32:59.211Z,23.27
2018-08-30T03:35:28.343Z,26.47
2018-08-30T03:37:57.505Z,26.70
2018-08-30T03:40:26.658Z,26.93
2018-08-30T03:42:55.896Z,28.03
2018-08-30T03:45:25.012Z,28.83
2018-08-30T03:47:54.158Z,35.20
2018-08-30T03:50:23.302Z,39.90
2018-08-30T03:52:52.489Z,47.27
2018-08-30T03:55:21.717Z,50.60
2018-08-30T03:57:50.866Z,53.00
2018-08-30T04:00:20.074Z,51.50
2018-08-30T04:02:49.276Z,56.37
2018-08-30T04:05:18.601Z,52.90
2018-08-30T04:07:47.752Z,54.10
2018-08-30T04:10:16.929Z,52.43
2018-08-30T04:12:46.029Z,55.40
2018-08-30T04:15:15.234Z,52.57
2018-08-30T04:17:44.474Z,56.80
2018-08-30T04:20:13.610Z,57.80
2018-08-30T04:22:42.851Z,57.37
2018-08-30T04:25:12.044Z,61.63
2018-08-30T04:27:41.273Z,57.27
2018-08-30T04:30:10.490Z,58.70
2018-08-30T04:32:39.698Z,57.97
2018-08-30T04:35:08.849Z,53.00
2018-08-30T04:37:37.977Z,60.20
2018-08-30T04:40:07.240Z,56.90
2018-08-30T04:42:36.431Z,56.60
2018-08-30T04:45:06.108Z,54.07
2018-08-30T04:47:35.269Z,51.13
2018-08-30T04:50:04.523Z,49.80
2018-08-30T04:52:33.614Z,51.50
2018-08-30T04:55:02.754Z,52.60
2018-08-30T04:57:31.889Z,48.63
2018-08-30T05:00:01.024Z,48.07
2018-08-30T05:02:30.147Z,46.33
2018-08-30T05:04:59.259Z,48.73
2018-08-30T05:07:28.421Z,45.43
2018-08-30T05:09:57.610Z,49.43
2018-08-30T05:12:26.795Z,45.07
2018-08-30T05:14:55.947Z,47.53
2018-08-30T05:17:25.122Z,46.90
2018-08-30T05:19:54.249Z,45.07
2018-08-30T05:22:23.411Z,46.23
2018-08-30T05:24:52.573Z,47.67
2018-08-30T05:27:21.771Z,47.10
2018-08-30T05:29:51.020Z,46.53
2018-08-30T05:32:20.077Z,45.70
2018-08-30T05:34:49.226Z,44.33
2018-08-30T05:37:18.437Z,48.13
2018-08-30T05:39:47.664Z,42.87
2018-08-30T05:42:16.902Z,42.57
2018-08-30T05:44:46.161Z,44.90
2018-08-30T05:47:15.276Z,42.80
2018-08-30T05:49:44.432Z,42.67
2018-08-30T05:52:13.542Z,40.60
2018-08-30T05:54:42.781Z,43.23
2018-08-30T05:57:11.895Z,43.63
2018-08-30T05:59:41.930Z,46.20
2018-08-30T06:02:11.065Z,42.90
2018-08-30T06:04:40.321Z,45.37
2018-08-30T06:07:09.533Z,45.93
2018-08-30T06:09:38.634Z,43.27
2018-08-30T06:12:07.825Z,43.07
2018-08-30T06:14:36.952Z,44.50
2018-08-30T06:17:06.168Z,42.70
2018-08-30T06:19:35.322Z,39.20
2018-08-30T06:22:04.467Z,43.63
2018-08-30T06:24:33.586Z,41.43
2018-08-30T06:27:03.220Z,41.00
2018-08-30T06:29:32.446Z,40.37
2018-08-30T06:32:02.178Z,39.27
2018-08-30T06:34:31.717Z,37.53
2018-08-30T06:37:00.928Z,34.70
2018-08-30T06:39:30.097Z,35.57
2018-08-30T06:41:59.277Z,34.47
2018-08-30T06:44:28.515Z,32.10
2018-08-30T06:46:57.645Z,29.87
2018-08-30T06:49:26.745Z,29.80
2018-08-30T06:51:56.049Z,29.80
2018-08-30T06:54:25.188Z,31.23
2018-08-30T06:56:54.340Z,29.03
2018-08-30T06:59:24.603Z,29.57
2018-08-30T07:01:53.718Z,28.60
2018-08-30T07:04:22.994Z,26.30
2018-08-30T07:06:52.015Z,26.87
2018-08-30T07:09:21.240Z,27.37
2018-08-30T07:11:50.380Z,28.27
2018-08-30T07:14:19.523Z,29.10
2018-08-30T07:16:48.692Z,27.47
2018-08-30T07:19:17.928Z,27.33
2018-08-30T07:21:47.070Z,26.00
2018-08-30T07:24:16.165Z,25.90
2018-08-30T07:26:45.358Z,26.60
2018-08-30T07:29:14.477Z,25.63
2018-08-30T07:34:38.191Z,25.50
2018-08-30T07:37:13.244Z,23.90
2018-08-30T07:39:46.274Z,25.40
2018-08-30T07:42:16.254Z,23.93
2018-08-30T07:44:45.410Z,25.57
2018-08-30T07:47:14.605Z,25.57
2018-08-30T07:49:43.785Z,26.97
2018-08-30T07:52:12.969Z,25.57
2018-08-30T07:54:42.177Z,25.90
2018-08-30T07:57:11.303Z,26.77
2018-08-30T07:59:40.448Z,25.97
2018-08-30T08:02:09.690Z,27.20
2018-08-30T08:04:38.876Z,24.90
2018-08-30T08:07:08.039Z,24.90
2018-08-30T08:09:37.226Z,24.50
2018-08-30T08:12:06.519Z,21.90
2018-08-30T08:14:35.619Z,22.13
2018-08-30T08:17:04.917Z,23.93
2018-08-30T08:19:34.272Z,24.13
2018-08-30T08:22:03.477Z,23.37
2018-08-30T08:24:32.636Z,25.57
2018-08-30T08:27:01.750Z,23.70
2018-08-30T08:29:31.004Z,22.77
2018-08-30T08:32:00.136Z,23.43
2018-08-30T08:34:29.221Z,23.40
2018-08-30T08:36:58.370Z,22.33
2018-08-30T08:39:27.529Z,20.73
2018-08-30T08:41:56.721Z,19.37
2018-08-30T08:44:26.095Z,18.73
2018-08-30T08:46:55.226Z,20.30
2018-08-30T08:49:24.390Z,19.80
2018-08-30T08:51:53.568Z,21.40
2018-08-30T08:54:22.713Z,20.70
2018-08-30T08:56:51.885Z,20.73
2018-08-30T08:59:21.035Z,17.93
2018-08-30T09:01:50.284Z,19.70
2018-08-30T09:04:19.382Z,20.63
2018-08-30T09:06:48.503Z,19.53
2018-08-30T09:09:17.681Z,20.07
2018-08-30T09:11:46.809Z,21.57
2018-08-30T09:14:15.950Z,20.87
2018-08-30T09:16:45.115Z,21.90
2018-08-30T09:19:14.262Z,18.30
2018-08-30T09:21:43.403Z,20.23
2018-08-30T09:24:12.540Z,20.47
2018-08-30T09:26:41.685Z,22.90
2018-08-30T09:29:10.743Z,20.33
2018-08-30T09:31:39.967Z,20.30
2018-08-30T09:34:09.095Z,21.63
2018-08-30T09:36:38.221Z,19.13
2018-08-30T09:39:09.089Z,18.30
2018-08-30T09:41:38.263Z,16.93
2018-08-30T09:44:07.411Z,17.37
2018-08-30T09:46:36.555Z,16.03
2018-08-30T09:49:06.191Z,10.97
2018-08-30T09:51:35.499Z,12.50
2018-08-30T09:54:04.601Z,11.77
2018-08-30T09:56:33.819Z,10.00
2018-08-30T09:59:09.712Z,8.67
2018-08-30T10:01:50.514Z,9.23
2018-08-30T10:04:20.507Z,8.43
2018-08-30T10:06:49.619Z,8.83
2018-08-30T10:09:18.903Z,6.70
2018-08-30T10:11:48.029Z,7.30
2018-08-30T10:14:17.179Z,8.50
2018-08-30T10:16:46.398Z,10.00
2018-08-30T10:19:15.732Z,10.40
2018-08-30T10:21:44.983Z,13.50
2018-08-30T10:24:14.149Z,16.40
2018-08-30T10:26:43.307Z,17.77
2018-08-30T10:29:12.517Z,17.60
2018-08-30T10:31:41.862Z,21.30
2018-08-30T10:34:10.870Z,19.40
2018-08-30T10:36:40.006Z,19.50
2018-08-30T10:39:09.412Z,19.70
2018-08-30T10:41:38.527Z,21.63
2018-08-30T10:44:07.716Z,19.10
2018-08-30T10:46:36.886Z,19.73
2018-08-30T10:49:06.155Z,19.00
2018-08-30T10:51:35.337Z,20.23
2018-08-30T10:54:04.460Z,20.10
2018-08-30T10:56:33.558Z,20.30
2018-08-30T10:59:02.696Z,18.90
2018-08-30T11:01:31.847Z,21.30
2018-08-30T11:04:01.204Z,23.50
2018-08-30T11:06:30.295Z,25.90
2018-08-30T11:08:59.487Z,25.47
2018-08-30T11:11:28.651Z,25.47
2018-08-30T11:13:57.790Z,25.63
2018-08-30T11:16:26.904Z,26.77
2018-08-30T11:18:56.039Z,25.37
2018-08-30T11:21:25.266Z,22.90
2018-08-30T11:23:54.345Z,20.63
2018-08-30T11:26:23.501Z,21.90
2018-08-30T11:28:52.617Z,21.57
2018-08-30T11:31:21.831Z,22.00
2018-08-30T11:33:50.905Z,22.97
2018-08-30T11:36:20.073Z,20.97
2018-08-30T11:38:49.254Z,21.73
2018-08-30T11:41:18.338Z,21.40
2018-08-30T11:43:47.448Z,19.63
2018-08-30T11:46:16.538Z,19.90
2018-08-30T11:48:45.759Z,20.63
2018-08-30T11:51:16.605Z,20.23
2018-08-30T11:53:46.305Z,21.00
2018-08-30T11:56:15.434Z,20.53
2018-08-30T11:58:44.544Z,18.00
2018-08-30T12:01:13.646Z,19.63
2018-08-30T12:03:45.283Z,18.70
2018-08-30T12:06:14.374Z,17.70
2018-08-30T12:08:43.611Z,16.07
2018-08-30T12:11:13.258Z,16.80
2018-08-30T12:13:42.371Z,16.30
2018-08-30T12:16:11.482Z,13.97
2018-08-30T12:18:40.659Z,17.37
2018-08-30T12:21:09.796Z,15.10
2018-08-30T12:23:38.976Z,15.47
2018-08-30T12:26:08.178Z,14.70
2018-08-30T12:28:38.147Z,15.60
2018-08-30T12:31:07.314Z,13.20
2018-08-30T12:33:36.464Z,14.53
2018-08-30T12:36:06.000Z,14.87
2018-08-30T12:38:35.079Z,14.20
2018-08-30T12:41:04.245Z,15.33
2018-08-30T12:43:33.512Z,14.50
2018-08-30T12:46:02.521Z,13.50
2018-08-30T12:48:31.891Z,14.53
2018-08-30T12:51:01.171Z,13.17
2018-08-30T12:53:30.306Z,12.60
2018-08-30T12:55:59.423Z,13.10
2018-08-30T12:58:28.632Z,12.07
2018-08-30T13:00:57.780Z,11.97
2018-08-30T13:03:26.860Z,13.77
2018-08-30T13:05:56.141Z,13.70
2018-08-30T13:08:25.331Z,13.63
2018-08-30T13:10:54.628Z,13.70
2018-08-30T13:13:23.850Z,15.17
2018-08-30T13:15:59.263Z,14.40
2018-08-30T13:18:28.427Z,15.40
2018-08-30T13:20:57.706Z,15.33
2018-08-30T13:23:26.802Z,14.87
2018-08-30T13:25:55.954Z,14.40
2018-08-30T13:28:25.071Z,14.67
2018-08-30T13:30:54.391Z,13.10
2018-08-30T13:33:23.621Z,13.90
2018-08-30T13:35:52.997Z,14.10
2018-08-30T13:38:22.281Z,13.40
2018-08-30T13:40:51.723Z,12.20
2018-08-30T13:43:20.670Z,10.80
2018-08-30T13:45:49.793Z,9.63
2018-08-30T13:48:18.867Z,10.27
2018-08-30T13:50:48.091Z,9.40
2018-08-30T13:53:17.258Z,8.87
2018-08-30T13:55:46.415Z,9.23
2018-08-30T13:58:15.845Z,8.83
2018-08-30T14:00:45.244Z,7.97
2018-08-30T14:03:13.940Z,8.57
2018-08-30T14:05:43.229Z,8.10
2018-08-30T14:08:12.217Z,8.30
2018-08-30T14:10:41.451Z,7.70
2018-08-30T14:13:10.644Z,8.50
2018-08-30T14:15:39.453Z,8.47
2018-08-30T14:18:08.741Z,8.53
2018-08-30T14:20:37.936Z,9.57
2018-08-30T14:23:07.139Z,9.00
2018-08-30T14:25:36.321Z,9.70
2018-08-30T14:28:05.484Z,8.80
2018-08-30T14:30:34.648Z,10.13
2018-08-30T14:33:03.874Z,8.77
2018-08-30T14:35:33.108Z,9.23
2018-08-30T14:38:02.334Z,10.17
2018-08-30T14:40:31.565Z,10.17
2018-08-30T14:43:00.659Z,10.10
2018-08-30T14:45:29.876Z,9.87
2018-08-30T14:47:59.076Z,10.90
2018-08-30T14:50:28.289Z,10.80
2018-08-30T14:52:57.549Z,11.80
2018-08-30T14:55:26.767Z,12.00
2018-08-30T14:57:56.111Z,10.53
2018-08-30T15:00:25.371Z,11.10
2018-08-30T15:02:54.534Z,10.83
2018-08-30T15:05:23.866Z,11.60
2018-08-30T15:07:52.980Z,11.37
2018-08-30T15:10:22.159Z,10.90
2018-08-30T15:12:51.396Z,11.80
2018-08-30T15:15:20.665Z,11.00
2018-08-30T15:17:49.849Z,12.73
2018-08-30T15:20:19.079Z,11.27
2018-08-30T15:22:48.310Z,11.63
2018-08-30T15:25:17.842Z,10.97
2018-08-30T15:27:47.028Z,9.57
2018-08-30T15:30:16.247Z,10.00
2018-08-30T15:32:45.371Z,11.37
2018-08-30T15:35:14.689Z,9.63
2018-08-30T15:37:43.914Z,9.67
2018-08-30T15:40:13.177Z,8.37
2018-08-30T15:42:42.417Z,8.87
2018-08-30T15:45:11.559Z,7.97
2018-08-30T15:47:40.714Z,7.43
2018-08-30T15:50:09.836Z,8.00
2018-08-30T15:52:45.801Z,7.20
2018-08-30T15:55:15.040Z,7.90
2018-08-30T15:57:44.280Z,6.70
2018-08-30T16:00:15.798Z,7.53
2018-08-30T16:02:45.804Z,7.33
2018-08-30T16:05:14.905Z,7.37
2018-08-30T16:07:44.547Z,7.77
2018-08-30T16:10:14.794Z,7.00
2018-08-30T16:12:44.351Z,7.13
2018-08-30T16:15:13.854Z,8.17
2018-08-30T16:17:43.096Z,7.10
2018-08-30T16:20:12.291Z,8.60
2018-08-30T16:23:49.256Z,8.93
2018-08-30T16:26:18.445Z,8.30
2018-08-30T16:28:47.569Z,8.87
2018-08-30T16:31:16.825Z,8.53
2018-08-30T16:33:45.892Z,9.40
2018-08-30T16:36:15.054Z,8.53
2018-08-30T16:38:44.257Z,9.47
2018-08-30T16:41:13.424Z,7.67
2018-08-30T16:43:42.625Z,7.60
2018-08-30T16:46:11.820Z,7.80
2018-08-30T16:48:41.051Z,6.53
2018-08-30T16:51:10.237Z,7.10
2018-08-30T16:53:39.457Z,7.53
2018-08-30T16:56:08.637Z,7.70
2018-08-30T16:58:37.795Z,7.50
2018-08-30T17:01:06.963Z,7.60
2018-08-30T17:03:36.178Z,7.90
2018-08-30T17:06:05.342Z,7.37
2018-08-30T17:08:34.565Z,7.33
2018-08-30T17:11:10.026Z,8.90
2018-08-30T17:13:39.331Z,7.60
2018-08-30T17:16:08.616Z,8.43
2018-08-30T17:18:38.497Z,8.10
2018-08-30T17:21:07.622Z,8.87
2018-08-30T17:23:36.784Z,7.63
2018-08-30T17:26:06.480Z,8.57
2018-08-30T17:28:35.676Z,8.20
2018-08-30T17:31:04.902Z,7.90
2018-08-30T17:33:34.006Z,7.63
2018-08-30T17:36:03.240Z,8.40
2018-08-30T17:38:32.376Z,8.40
2018-08-30T17:41:01.591Z,7.70
2018-08-30T17:43:30.707Z,8.80
2018-08-30T17:45:59.866Z,7.87
2018-08-30T17:48:29.065Z,7.30
2018-08-30T17:50:58.252Z,7.40
2018-08-30T17:53:27.369Z,7.10
2018-08-30T17:55:56.626Z,7.93
2018-08-30T17:58:25.700Z,7.80
2018-08-30T18:00:54.933Z,8.63
2018-08-30T18:03:24.223Z,7.87
2018-08-30T18:05:53.394Z,8.50
2018-08-30T18:08:22.682Z,8.27
2018-08-30T18:10:51.838Z,7.10
2018-08-30T18:13:21.013Z,8.23
2018-08-30T18:15:50.297Z,8.17
2018-08-30T18:18:19.651Z,9.20
2018-08-30T18:20:48.877Z,9.20
2018-08-30T18:23:18.077Z,8.67
2018-08-30T18:25:47.289Z,8.00
2018-08-30T18:28:16.566Z,7.53
2018-08-30T18:30:45.726Z,7.37
2018-08-30T18:33:14.898Z,7.40
2018-08-30T18:35:44.113Z,8.13
2018-08-30T18:38:13.279Z,6.83
2018-08-30T18:40:42.469Z,8.27
2018-08-30T18:43:11.711Z,8.17
2018-08-30T18:45:40.900Z,8.50
2018-08-30T18:48:10.179Z,7.67
2018-08-30T18:50:39.372Z,7.87
2018-08-30T18:53:08.622Z,7.30
2018-08-30T18:55:37.835Z,7.50
2018-08-30T18:58:07.013Z,7.13
2018-08-30T19:00:36.158Z,6.57
2018-08-30T19:03:05.362Z,6.40
2018-08-30T19:05:34.498Z,7.00
2018-08-30T19:08:03.717Z,7.47
2018-08-30T19:10:32.890Z,6.70
2018-08-30T19:13:02.068Z,8.57
2018-08-30T19:15:38.332Z,6.80
2018-08-30T19:18:12.995Z,7.17
2018-08-30T19:20:42.347Z,6.50
2018-08-30T19:23:11.864Z,6.10
2018-08-30T19:25:41.048Z,5.47
2018-08-30T19:28:10.155Z,4.97
2018-08-30T19:30:39.339Z,5.97
2018-08-30T19:33:08.571Z,5.57
2018-08-30T19:35:43.104Z,4.70
2018-08-30T19:38:12.264Z,5.00
2018-08-30T19:40:46.914Z,4.80
2018-08-30T19:43:16.074Z,4.83
2018-08-30T19:45:45.223Z,4.60
2018-08-30T19:48:14.357Z,4.67
2018-08-30T19:50:43.553Z,6.37
2018-08-30T19:53:13.277Z,6.70
2018-08-30T19:55:42.480Z,6.27
2018-08-30T19:58:11.664Z,4.20
2018-08-30T20:00:40.950Z,4.07
2018-08-30T20:03:10.178Z,3.60
2018-08-30T20:05:39.607Z,4.00
2018-08-30T20:08:09.031Z,3.80
2018-08-30T20:10:38.440Z,3.53
2018-08-30T20:13:08.739Z,4.30
2018-08-30T20:15:38.145Z,3.77
2018-08-30T20:18:07.227Z,3.77
2018-08-30T20:20:36.480Z,3.37
2018-08-30T20:23:05.765Z,3.43
2018-08-30T20:25:34.971Z,3.93
2018-08-30T20:28:04.151Z,3.20
2018-08-30T20:30:33.288Z,3.00
2018-08-30T20:33:02.540Z,3.40
2018-08-30T20:35:31.721Z,3.40
2018-08-30T20:38:00.849Z,3.77
2018-08-30T20:40:29.933Z,4.67
2018-08-30T20:42:59.167Z,3.90
2018-08-30T20:45:28.369Z,4.00
2018-08-30T20:47:57.582Z,3.63
2018-08-30T20:50:26.737Z,3.37
2018-08-30T20:52:55.897Z,2.90
2018-08-30T20:55:25.053Z,3.10
2018-08-30T20:57:54.204Z,3.67
2018-08-30T21:00:23.447Z,2.80
2018-08-30T21:02:52.490Z,2.90
2018-08-30T21:05:21.713Z,4.03
2018-08-30T21:07:50.851Z,3.57
2018-08-30T21:10:20.044Z,3.10
2018-08-30T21:12:49.206Z,3.27
2018-08-30T21:15:18.358Z,3.73
2018-08-30T21:17:47.599Z,2.80
2018-08-30T21:20:16.890Z,3.20
2018-08-30T21:22:46.093Z,3.10
2018-08-30T21:25:15.235Z,4.03
2018-08-30T21:27:44.368Z,3.37
2018-08-30T21:30:13.488Z,4.23
2018-08-30T21:32:42.632Z,4.10
2018-08-30T21:35:11.820Z,3.60
2018-08-30T21:37:40.895Z,3.93
2018-08-30T21:40:09.989Z,3.33
2018-08-30T21:42:39.128Z,3.30
2018-08-30T21:45:08.200Z,3.10
2018-08-30T21:47:37.344Z,2.90
2018-08-30T21:50:06.925Z,3.30
2018-08-30T21:52:36.010Z,3.93
2018-08-30T21:55:05.215Z,3.10
2018-08-30T21:57:34.323Z,3.57
2018-08-30T22:00:03.472Z,3.30
2018-08-30T22:02:32.615Z,2.50
2018-08-30T22:05:01.745Z,4.03
2018-08-30T22:07:30.946Z,3.13
2018-08-30T22:10:00.068Z,3.43
2018-08-30T22:12:29.254Z,3.10
2018-08-30T22:14:58.359Z,2.90
2018-08-30T22:17:27.515Z,2.70
2018-08-30T22:19:56.611Z,3.30
2018-08-30T22:22:25.834Z,2.50
2018-08-30T22:24:55.016Z,2.33
2018-08-30T22:27:24.120Z,3.00
2018-08-30T22:29:53.292Z,4.00
2018-08-30T22:32:22.430Z,2.57
2018-08-30T22:34:51.546Z,2.97
2018-08-30T22:37:20.671Z,3.20
2018-08-30T22:39:49.877Z,3.30
2018-08-30T22:42:19.065Z,2.77
2018-08-30T22:44:48.235Z,3.37
2018-08-30T22:47:17.487Z,3.30
2018-08-30T22:49:46.948Z,2.60
2018-08-30T22:52:16.081Z,4.10
2018-08-30T22:54:45.236Z,2.83
2018-08-30T22:57:14.428Z,3.37
2018-08-30T22:59:43.551Z,2.73
2018-08-30T23:02:12.673Z,2.30
2018-08-30T23:04:41.792Z,3.43
2018-08-30T23:07:10.942Z,2.73
2018-08-30T23:09:40.172Z,2.90
2018-08-30T23:12:09.292Z,2.70
2018-08-30T23:14:38.355Z,3.53
2018-08-30T23:17:07.523Z,3.80
2018-08-30T23:19:36.918Z,3.20
2018-08-30T23:22:06.207Z,2.63
2018-08-30T23:24:35.318Z,3.03
2018-08-30T23:27:04.491Z,2.93
2018-08-30T23:29:33.613Z,2.37
2018-08-30T23:32:02.746Z,3.10
2018-08-30T23:34:31.897Z,2.80
2018-08-30T23:37:01.017Z,3.40
2018-08-30T23:39:30.158Z,3.10
2018-08-30T23:41:59.361Z,3.03
2018-08-30T23:44:28.478Z,4.53
2018-08-30T23:46:57.584Z,2.60
2018-08-30T23:49:26.723Z,2.40
2018-08-30T23:51:55.825Z,2.10
2018-08-30T23:54:24.978Z,2.63
2018-08-30T23:56:54.146Z,2.30
2018-08-30T23:59:40.508Z,2.50
